CheckWX is a tool to help pilots better visualize weather data.  It is not intended as a substitute for an official pre-flight weather briefing.

23:47:56 UTC

EGLC METAR
London City Airport
London, United Kingdom
Current

28 mins ago

EGLC 222320Z AUTO VRB02KT 9999 NCD 09/07 Q1021
Observed
Oct-22 @ 23:20 UTC
Wind
  • Variable at 2 KTS
Visibility
10,000+ meters
Flight Rules
VFR
Cloud Levels
  • Clear skies
Temperature
C / 48°F
Dewpoint
C / 45°F
Humidity
87%
Altimeter
30.15" Hg
Pressure
1020.92 hPa
Previous

58 mins ago

EGLC 222250Z AUTO VRB03KT 9999 NCD 09/07 Q1022
Observed
Oct-22 @ 22:50 UTC
Wind
  • Variable at 3 KTS
Visibility
10,000+ meters
Flight Rules
VFR
Cloud Levels
  • Clear skies
Temperature
C / 48°F
Dewpoint
C / 45°F
Humidity
87%
Altimeter
30.18" Hg
Pressure
1021.92 hPa
Previous

1 hour ago

EGLC 222220Z AUTO VRB01KT 9999 NCD 09/07 Q1022
Observed
Oct-22 @ 22:20 UTC
Wind
  • Variable at 1 KTS
Visibility
10,000+ meters
Flight Rules
VFR
Cloud Levels
  • Clear skies
Temperature
C / 48°F
Dewpoint
C / 45°F
Humidity
87%
Altimeter
30.18" Hg
Pressure
1021.92 hPa